Time;durP1;ratioP1;P1;durP2;ratioP2;P2;SDS_P1;SDS_P2;PMS_P1;PMS_P2;Temp;Humidity;BMP_temperature;BMP_pressure;BME280_temperature;BME280_humidity;BME280_pressure;Samples;Min_cycle;Max_cycle;Signal;HPM_P1;HPM_P2
2021/07/05 00:01:15;;;;;;;0.13;0.00;;;19.20;68.00;;;;;;5011304;28;22351;-83
2021/07/05 00:03:41;;;;;;;1.45;0.10;;;19.20;68.00;;;;;;5011134;28;20052;-82
2021/07/05 00:06:07;;;;;;;0.10;0.00;;;19.20;68.10;;;;;;5026971;28;20576;-83
2021/07/05 00:08:33;;;;;;;0.00;0.00;;;19.20;68.30;;;;;;5026571;28;20037;-83
2021/07/05 00:10:59;;;;;;;0.00;0.00;;;19.20;68.50;;;;;;5011592;28;20026;-83
2021/07/05 00:13:25;;;;;;;0.00;0.00;;;19.10;68.60;;;;;;5026989;28;20495;-81
2021/07/05 00:15:52;;;;;;;0.00;0.00;;;19.10;68.60;;;;;;5026829;28;20040;-83
2021/07/05 00:18:18;;;;;;;0.00;0.00;;;19.10;68.80;;;;;;5026873;28;20022;-83
2021/07/05 00:20:44;;;;;;;0.00;0.00;;;19.00;68.80;;;;;;5011698;28;20030;-83
2021/07/05 00:23:11;;;;;;;0.10;0.00;;;19.00;68.90;;;;;;5013629;28;20034;-82
2021/07/05 00:25:37;;;;;;;0.00;0.00;;;19.00;69.00;;;;;;5014372;28;20100;-83
2021/07/05 00:28:03;;;;;;;0.00;0.00;;;19.00;69.10;;;;;;5030707;28;20380;-82
2021/07/05 00:30:30;;;;;;;0.00;0.00;;;19.00;69.10;;;;;;5013879;28;20038;-83
2021/07/05 00:32:56;;;;;;;0.00;0.00;;;19.00;69.10;;;;;;5030569;28;20026;-82
2021/07/05 00:35:23;;;;;;;0.00;0.00;;;19.00;69.20;;;;;;5030242;28;20045;-83
2021/07/05 00:37:49;;;;;;;0.00;0.00;;;19.00;69.20;;;;;;5013501;28;20034;-82
2021/07/05 00:40:16;;;;;;;0.00;0.00;;;18.90;69.20;;;;;;5030151;28;20060;-82
2021/07/05 00:42:42;;;;;;;0.00;0.00;;;19.00;69.30;;;;;;4995038;28;20050;-82
2021/07/05 00:45:09;;;;;;;0.22;0.15;;;19.00;69.30;;;;;;4995717;28;20034;-86
2021/07/05 00:47:35;;;;;;;0.10;0.00;;;19.00;69.40;;;;;;5014920;28;20010;-83
2021/07/05 00:50:01;;;;;;;0.00;0.00;;;19.00;69.50;;;;;;5029966;28;20402;-83
2021/07/05 00:52:28;;;;;;;0.10;0.10;;;19.00;69.50;;;;;;5029741;28;20022;-83
2021/07/05 00:54:54;;;;;;;0.00;0.00;;;19.00;69.60;;;;;;5030535;28;20042;-83
2021/07/05 00:57:20;;;;;;;0.00;0.00;;;19.00;69.70;;;;;;5030082;28;20034;-83
2021/07/05 00:59:48;;;;;;;0.13;0.13;;;19.00;69.80;;;;;;5029832;28;20492;-84
2021/07/05 01:02:15;;;;;;;0.00;0.00;;;19.00;69.80;;;;;;5029360;28;20046;-83
2021/07/05 01:04:41;;;;;;;0.00;0.00;;;19.00;69.70;;;;;;5029879;28;20029;-83
2021/07/05 01:07:07;;;;;;;0.00;0.00;;;19.00;69.80;;;;;;5013002;28;20480;-84
2021/07/05 01:09:33;;;;;;;0.00;0.00;;;19.00;69.70;;;;;;5013735;28;20026;-83
2021/07/05 01:11:59;;;;;;;0.00;0.00;;;19.00;69.80;;;;;;5029694;28;20033;-83
2021/07/05 01:14:25;;;;;;;0.00;0.00;;;19.10;69.90;;;;;;5014338;28;20026;-83
2021/07/05 01:16:51;;;;;;;0.00;0.00;;;19.10;70.00;;;;;;5012888;28;20476;-81
2021/07/05 01:19:17;;;;;;;0.00;0.00;;;19.10;70.00;;;;;;5014414;28;20022;-83
2021/07/05 01:21:43;;;;;;;0.00;0.00;;;19.10;70.00;;;;;;5013300;28;20040;-83
2021/07/05 01:24:09;;;;;;;0.00;0.00;;;19.10;70.10;;;;;;5029456;28;20026;-84
2021/07/05 01:26:36;;;;;;;0.00;0.00;;;19.10;70.30;;;;;;5014411;28;20502;-83
2021/07/05 01:29:02;;;;;;;0.00;0.00;;;19.10;70.20;;;;;;5012613;28;20480;-82
2021/07/05 01:31:28;;;;;;;0.00;0.00;;;19.20;70.20;;;;;;5013654;28;20030;-83
2021/07/05 01:33:55;;;;;;;0.00;0.00;;;19.20;70.30;;;;;;5012727;28;20049;-81
2021/07/05 01:36:22;;;;;;;0.00;0.00;;;19.20;70.40;;;;;;5013818;28;20049;-83
2021/07/05 01:38:51;;;;;;;0.00;0.00;;;19.20;70.40;;;;;;5029341;28;20025;-83
2021/07/05 01:41:18;;;;;;;0.00;0.00;;;19.20;70.40;;;;;;5028674;28;20033;-83
2021/07/05 01:43:44;;;;;;;0.00;0.00;;;19.20;70.40;;;;;;5029156;28;20018;-83
2021/07/05 01:46:10;;;;;;;0.03;0.00;;;19.20;70.40;;;;;;5013439;28;20049;-81
2021/07/05 01:48:36;;;;;;;0.10;0.00;;;19.30;70.60;;;;;;5013258;28;20030;-82
2021/07/05 01:51:03;;;;;;;0.00;0.00;;;19.30;70.60;;;;;;5013478;28;20033;-83
2021/07/05 01:53:29;;;;;;;0.45;0.28;;;19.30;70.60;;;;;;5028959;28;20030;-85
2021/07/05 01:55:55;;;;;;;0.00;0.00;;;19.40;70.70;;;;;;5028870;28;20428;-83
2021/07/05 01:58:21;;;;;;;0.00;0.00;;;19.40;70.70;;;;;;5013556;28;20502;-82
2021/07/05 02:00:47;;;;;;;0.00;0.00;;;19.40;70.80;;;;;;5012425;28;20100;-83
2021/07/05 02:03:14;;;;;;;0.00;0.00;;;19.40;70.80;;;;;;5004337;28;20049;-83
2021/07/05 02:05:40;;;;;;;0.00;0.00;;;19.50;70.90;;;;;;5020755;28;20030;-83
2021/07/05 02:08:07;;;;;;;0.00;0.00;;;19.50;70.90;;;;;;5007905;28;20022;-83
2021/07/05 02:10:34;;;;;;;0.10;0.00;;;19.50;71.00;;;;;;5009682;28;20781;-81
2021/07/05 02:13:09;;;;;;;0.10;0.00;;;19.50;71.00;;;;;;5026607;28;20029;-81
2021/07/05 02:15:35;;;;;;;0.00;0.00;;;19.60;71.20;;;;;;5008547;28;20046;-83
2021/07/05 02:18:01;;;;;;;0.00;0.00;;;19.60;71.20;;;;;;5019658;28;20025;-83
2021/07/05 02:20:28;;;;;;;0.05;0.00;;;19.60;71.30;;;;;;5024594;28;20034;-84
2021/07/05 02:22:54;;;;;;;0.00;0.00;;;19.50;71.30;;;;;;5007498;28;20034;-84
2021/07/05 02:25:26;;;;;;;0.52;0.03;;;19.60;71.30;;;;;;5009703;28;20026;-82
2021/07/05 02:27:56;;;;;;;0.20;0.00;;;19.60;71.40;;;;;;5008136;28;20037;-83
2021/07/05 02:30:24;;;;;;;0.00;0.00;;;19.60;71.40;;;;;;5008731;28;20492;-83
2021/07/05 02:32:50;;;;;;;0.90;0.00;;;19.60;71.40;;;;;;5003766;28;20034;-81
2021/07/05 02:35:20;;;;;;;0.00;0.00;;;19.60;71.50;;;;;;5018974;28;20045;-82
2021/07/05 02:37:46;;;;;;;1.02;0.22;;;19.60;72.30;;;;;;5012438;28;20043;-83
2021/07/05 02:40:14;;;;;;;0.00;0.00;;;19.60;71.60;;;;;;5028090;28;20033;-84
2021/07/05 02:42:40;;;;;;;0.60;0.10;;;19.60;71.70;;;;;;5012389;28;20033;-84
2021/07/05 02:45:07;;;;;;;0.10;0.00;;;19.70;71.80;;;;;;5011494;28;20026;-82
2021/07/05 02:47:34;;;;;;;0.00;0.00;;;19.70;71.80;;;;;;5027568;28;20044;-83
2021/07/05 02:50:00;;;;;;;0.10;0.00;;;19.70;71.90;;;;;;5027679;28;20026;-82
2021/07/05 02:52:26;;;;;;;0.00;0.00;;;19.70;72.00;;;;;;5027818;28;20377;-82
2021/07/05 02:54:52;;;;;;;0.00;0.00;;;19.70;72.00;;;;;;5012062;28;20038;-83
2021/07/05 02:57:30;;;;;;;0.08;0.00;;;19.70;72.00;;;;;;5007979;28;20042;-83
2021/07/05 03:00:08;;;;;;;0.38;0.13;;;19.70;72.10;;;;;;5022802;28;20503;-83
2021/07/05 03:02:34;;;;;;;0.00;0.00;;;19.70;72.30;;;;;;5026491;28;20033;-83
2021/07/05 03:05:01;;;;;;;0.10;0.00;;;19.70;72.20;;;;;;5027740;28;20025;-82
2021/07/05 03:07:27;;;;;;;0.15;0.00;;;19.70;72.30;;;;;;5027630;28;20045;-82
2021/07/05 03:09:53;;;;;;;0.00;0.00;;;19.70;72.30;;;;;;5028206;28;20018;-83
2021/07/05 03:12:20;;;;;;;0.00;0.00;;;19.70;72.40;;;;;;5027379;28;20388;-82
2021/07/05 03:14:46;;;;;;;0.10;0.10;;;19.70;72.50;;;;;;5007656;28;20481;-83
2021/07/05 03:17:12;;;;;;;0.15;0.03;;;19.60;72.40;;;;;;5001229;28;20064;-85
2021/07/05 03:19:39;;;;;;;7.32;0.30;;;19.70;72.60;;;;;;5027273;28;20037;-82
2021/07/05 03:22:05;;;;;;;0.10;0.00;;;19.70;72.70;;;;;;5027671;28;20037;-83
2021/07/05 03:24:31;;;;;;;0.00;0.00;;;19.70;72.70;;;;;;5011151;28;20041;-83
2021/07/05 03:26:57;;;;;;;0.10;0.00;;;19.70;72.80;;;;;;5012127;28;20026;-83
2021/07/05 03:29:23;;;;;;;0.00;0.00;;;19.70;72.90;;;;;;5007643;28;20409;-79
2021/07/05 03:31:49;;;;;;;0.98;0.00;;;19.70;72.90;;;;;;4999151;28;20030;-84
2021/07/05 03:34:15;;;;;;;0.00;0.00;;;19.60;72.90;;;;;;5011132;28;20057;-85
2021/07/05 03:36:41;;;;;;;1.45;0.20;;;19.70;73.00;;;;;;5012533;28;20042;-83
2021/07/05 03:39:07;;;;;;;0.55;0.08;;;19.70;73.10;;;;;;5010852;28;20034;-83
2021/07/05 03:41:34;;;;;;;0.00;0.00;;;19.70;73.10;;;;;;5010946;28;20041;-83
2021/07/05 03:44:00;;;;;;;0.00;0.00;;;19.70;73.10;;;;;;5011953;28;20029;-82
2021/07/05 03:46:26;;;;;;;0.00;0.00;;;19.70;73.20;;;;;;5026600;28;20045;-85
2021/07/05 03:48:52;;;;;;;0.00;0.00;;;19.70;73.20;;;;;;5008323;28;20033;-82
2021/07/05 03:51:18;;;;;;;0.00;0.00;;;19.70;73.30;;;;;;5026965;28;20034;-82
2021/07/05 03:53:44;;;;;;;0.20;0.10;;;19.70;73.30;;;;;;5027027;28;20034;-83
2021/07/05 03:56:10;;;;;;;0.00;0.00;;;19.70;73.40;;;;;;5012590;28;20504;-82
2021/07/05 03:58:36;;;;;;;0.10;0.10;;;19.70;73.40;;;;;;5031142;28;20025;-82
2021/07/05 04:01:02;;;;;;;0.00;0.00;;;19.70;73.40;;;;;;5030480;28;20038;-84
2021/07/05 04:03:28;;;;;;;0.00;0.00;;;19.70;73.40;;;;;;5015033;28;20389;-83
2021/07/05 04:05:55;;;;;;;0.00;0.00;;;19.70;73.40;;;;;;5030959;28;20041;-83
2021/07/05 04:08:25;;;;;;;0.28;0.20;;;19.70;73.50;;;;;;5031035;28;20037;-82
2021/07/05 04:10:51;;;;;;;0.00;0.00;;;19.70;73.60;;;;;;5015716;28;20045;-82
2021/07/05 04:13:17;;;;;;;0.00;0.00;;;19.70;74.00;;;;;;5030990;28;20029;-82
2021/07/05 04:15:43;;;;;;;2.47;0.20;;;19.70;73.70;;;;;;5014085;28;20030;-83
2021/07/05 04:18:10;;;;;;;2.17;0.55;;;19.70;73.80;;;;;;5015473;28;20042;-81
2021/07/05 04:20:36;;;;;;;0.10;0.10;;;19.70;73.80;;;;;;5030509;28;20370;-83
2021/07/05 04:23:02;;;;;;;0.00;0.00;;;19.60;73.70;;;;;;5030596;28;20033;-82
2021/07/05 04:25:28;;;;;;;0.00;0.00;;;19.70;73.90;;;;;;5015418;28;20380;-82
2021/07/05 04:27:54;;;;;;;0.00;0.00;;;19.60;73.80;;;;;;5031178;28;20048;-83
2021/07/05 04:30:21;;;;;;;6.00;0.10;;;19.60;73.90;;;;;;5014030;28;20100;-82
2021/07/05 04:32:47;;;;;;;0.00;0.00;;;19.70;74.00;;;;;;5013870;28;20045;-83
2021/07/05 04:35:15;;;;;;;0.00;0.00;;;19.70;74.00;;;;;;5030231;28;20034;-82
2021/07/05 04:37:42;;;;;;;5.65;0.22;;;19.70;74.10;;;;;;5030284;28;20404;-82
2021/07/05 04:40:09;;;;;;;0.00;0.00;;;19.70;74.10;;;;;;5030467;28;20022;-82
2021/07/05 04:42:35;;;;;;;0.40;0.00;;;19.60;74.10;;;;;;5014151;28;20040;-83
2021/07/05 04:45:02;;;;;;;0.00;0.00;;;19.60;74.20;;;;;;5012740;28;20037;-79
2021/07/05 04:47:28;;;;;;;0.00;0.00;;;19.60;74.20;;;;;;5030037;28;20041;-82
2021/07/05 04:49:54;;;;;;;0.00;0.00;;;19.70;74.40;;;;;;5013793;28;20038;-83
2021/07/05 04:52:20;;;;;;;0.00;0.00;;;19.60;74.30;;;;;;5030038;28;20026;-82
2021/07/05 04:54:46;;;;;;;0.00;0.00;;;19.70;74.40;;;;;;5014173;28;20032;-82
2021/07/05 04:57:12;;;;;;;0.63;0.10;;;19.70;74.40;;;;;;5014645;28;20045;-80
2021/07/05 04:59:38;;;;;;;0.00;0.00;;;19.70;74.50;;;;;;5009590;28;20035;-83
2021/07/05 05:02:05;;;;;;;0.00;0.00;;;19.60;74.50;;;;;;5019172;28;20044;-82
2021/07/05 05:04:31;;;;;;;0.00;0.00;;;19.60;74.50;;;;;;5029873;28;20034;-82
2021/07/05 05:06:57;;;;;;;0.00;0.00;;;19.60;74.60;;;;;;5014131;28;20376;-83
2021/07/05 05:09:24;;;;;;;0.13;0.00;;;19.60;74.60;;;;;;4994092;28;20053;-82
2021/07/05 05:11:51;;;;;;;0.00;0.00;;;19.60;74.80;;;;;;5008945;28;20037;-81
2021/07/05 05:14:18;;;;;;;0.00;0.00;;;19.50;74.80;;;;;;5029330;28;20030;-82
2021/07/05 05:16:44;;;;;;;0.00;0.00;;;19.60;74.90;;;;;;5029103;28;20061;-82
2021/07/05 05:19:10;;;;;;;0.00;0.00;;;19.50;74.90;;;;;;5029748;28;20366;-81
2021/07/05 05:21:36;;;;;;;0.00;0.00;;;19.50;75.00;;;;;;5011754;28;20026;-82
2021/07/05 05:24:02;;;;;;;0.00;0.00;;;19.40;75.10;;;;;;5029461;28;20022;-82
2021/07/05 05:26:28;;;;;;;0.00;0.00;;;19.40;75.30;;;;;;5009221;28;20371;-83
2021/07/05 05:28:55;;;;;;;0.00;0.00;;;19.40;75.30;;;;;;4998219;28;20041;-82
2021/07/05 05:31:21;;;;;;;0.00;0.00;;;19.30;75.30;;;;;;5028828;28;20045;-82
2021/07/05 05:33:47;;;;;;;0.10;0.03;;;19.30;75.40;;;;;;4994057;28;20031;-82
2021/07/05 05:36:13;;;;;;;0.00;0.00;;;19.30;75.40;;;;;;5011654;28;20034;-81
2021/07/05 05:38:45;;;;;;;0.00;0.00;;;19.40;75.20;;;;;;5013837;28;20393;-83
2021/07/05 05:41:11;;;;;;;0.00;0.00;;;19.50;75.10;;;;;;5013545;28;20026;-83
2021/07/05 05:43:37;;;;;;;0.00;0.00;;;19.50;75.00;;;;;;5029125;28;20038;-82
2021/07/05 05:46:03;;;;;;;0.00;0.00;;;19.50;74.90;;;;;;5028610;28;20045;-82
2021/07/05 05:48:30;;;;;;;0.00;0.00;;;19.50;74.80;;;;;;5014074;28;20026;-82
2021/07/05 05:50:56;;;;;;;0.00;0.00;;;19.60;74.70;;;;;;5028802;28;20392;-82
2021/07/05 05:53:22;;;;;;;0.00;0.00;;;19.70;74.60;;;;;;5013709;28;20026;-82
2021/07/05 05:55:48;;;;;;;0.00;0.00;;;19.80;74.40;;;;;;5028556;28;20048;-83
2021/07/05 05:58:15;;;;;;;0.00;0.00;;;20.00;74.30;;;;;;5028782;28;20038;-83
2021/07/05 06:00:41;;;;;;;0.00;0.00;;;20.20;74.00;;;;;;5013577;28;20022;-83
2021/07/05 06:03:08;;;;;;;0.00;0.00;;;20.30;73.70;;;;;;5028782;28;20030;-83
2021/07/05 06:05:34;;;;;;;0.00;0.00;;;20.30;73.60;;;;;;5028611;28;20496;-83
2021/07/05 06:08:00;;;;;;;0.00;0.00;;;20.20;73.70;;;;;;5013667;28;20052;-81
2021/07/05 06:10:26;;;;;;;0.00;0.00;;;20.20;73.80;;;;;;5012992;28;20207;-81
2021/07/05 06:12:53;;;;;;;0.00;0.00;;;20.10;73.90;;;;;;5013912;28;20392;-83
2021/07/05 06:15:20;;;;;;;0.00;0.00;;;20.20;74.00;;;;;;5012681;28;20044;-83
2021/07/05 06:17:47;;;;;;;0.05;0.00;;;20.20;73.90;;;;;;5027588;28;20046;-83
2021/07/05 06:20:14;;;;;;;0.00;0.00;;;20.20;73.80;;;;;;5012945;28;20022;-80
2021/07/05 06:22:42;;;;;;;0.00;0.00;;;20.20;73.80;;;;;;5028583;28;20056;-83
2021/07/05 06:25:09;;;;;;;0.00;0.00;;;20.10;73.80;;;;;;5027751;28;20033;-83
2021/07/05 06:27:36;;;;;;;0.00;0.00;;;20.00;73.90;;;;;;5012292;28;20034;-84
2021/07/05 06:30:03;;;;;;;0.00;0.00;;;20.00;74.00;;;;;;5027515;28;20068;-83
2021/07/05 06:32:29;;;;;;;0.00;0.00;;;19.90;74.10;;;;;;5008137;28;20026;-83
2021/07/05 06:34:55;;;;;;;0.00;0.00;;;19.90;74.20;;;;;;5016524;28;20484;-84
2021/07/05 06:37:21;;;;;;;0.03;0.00;;;19.90;74.20;;;;;;5012777;28;20048;-83
2021/07/05 06:39:47;;;;;;;0.00;0.00;;;20.10;74.10;;;;;;5012992;28;20033;-83
2021/07/05 06:42:13;;;;;;;0.00;0.00;;;20.20;73.80;;;;;;5027846;28;20038;-82
2021/07/05 06:44:39;;;;;;;0.00;0.00;;;20.20;73.60;;;;;;5028044;28;20022;-83
2021/07/05 06:47:05;;;;;;;0.00;0.00;;;20.40;73.50;;;;;;5027588;28;20033;-84
2021/07/05 06:49:31;;;;;;;0.00;0.00;;;20.50;73.10;;;;;;5028137;28;20021;-83
2021/07/05 06:51:57;;;;;;;0.00;0.00;;;20.80;72.80;;;;;;5013093;28;20030;-82
2021/07/05 06:54:23;;;;;;;0.00;0.00;;;21.00;72.40;;;;;;5011300;28;20022;-84
2021/07/05 06:56:49;;;;;;;0.00;0.00;;;21.30;72.00;;;;;;5007866;28;20073;-82
2021/07/05 06:59:16;;;;;;;0.00;0.00;;;21.40;71.50;;;;;;5002611;28;20030;-82
2021/07/05 07:01:42;;;;;;;0.00;0.00;;;21.60;71.30;;;;;;5012410;28;20030;-84
2021/07/05 07:04:08;;;;;;;0.00;0.00;;;21.70;70.90;;;;;;5027779;28;20022;-82
2021/07/05 07:06:34;;;;;;;0.00;0.00;;;21.90;70.70;;;;;;5012756;28;20025;-84
2021/07/05 07:09:00;;;;;;;0.00;0.00;;;21.90;70.60;;;;;;5027178;28;20053;-84
2021/07/05 07:11:26;;;;;;;0.00;0.00;;;21.90;70.70;;;;;;5007641;28;20043;-84
2021/07/05 07:13:52;;;;;;;0.00;0.00;;;21.80;70.80;;;;;;5015420;28;20037;-80
2021/07/05 07:16:21;;;;;;;0.00;0.00;;;21.70;70.90;;;;;;5026849;28;20053;-84
2021/07/05 07:21:16;;;;;;;0.00;0.00;;;21.60;71.10;;;;;;5027620;28;20029;-83
2021/07/05 07:23:42;;;;;;;0.00;0.00;;;21.50;71.20;;;;;;5026714;28;20041;-83
2021/07/05 07:26:08;;;;;;;0.00;0.00;;;21.50;71.40;;;;;;5027273;28;20460;-84
2021/07/05 07:28:34;;;;;;;0.00;0.00;;;21.40;71.30;;;;;;5010672;28;20042;-84
2021/07/05 07:31:00;;;;;;;0.00;0.00;;;21.30;71.40;;;;;;5011116;28;20037;-86
2021/07/05 07:33:26;;;;;;;0.00;0.00;;;21.20;71.40;;;;;;4991662;28;20038;-83
2021/07/05 07:35:53;;;;;;;0.00;0.00;;;21.10;71.60;;;;;;5007119;28;20034;-84
2021/07/05 07:38:20;;;;;;;0.00;0.00;;;21.00;71.70;;;;;;5026809;28;20026;-84
2021/07/05 07:40:46;;;;;;;0.00;0.00;;;20.80;71.90;;;;;;5027181;28;20369;-84
2021/07/05 07:43:12;;;;;;;0.00;0.00;;;20.80;72.10;;;;;;5027195;28;20038;-84
2021/07/05 07:45:38;;;;;;;0.00;0.00;;;20.70;72.10;;;;;;5007566;28;20035;-84
2021/07/05 07:48:04;;;;;;;0.00;0.00;;;20.70;72.20;;;;;;5008344;28;20026;-84
2021/07/05 07:50:31;;;;;;;0.00;0.00;;;20.70;72.00;;;;;;5026948;28;20381;-86
2021/07/05 07:52:57;;;;;;;0.00;0.00;;;20.70;72.00;;;;;;5026919;28;20023;-84
2021/07/05 07:55:23;;;;;;;0.00;0.00;;;20.70;71.80;;;;;;5011952;28;20488;-84
2021/07/05 07:57:49;;;;;;;0.00;0.00;;;20.70;71.80;;;;;;4991680;28;20050;-84
2021/07/05 08:00:15;;;;;;;0.00;0.00;;;20.70;71.70;;;;;;5009280;28;20022;-84
2021/07/05 08:02:42;;;;;;;0.00;0.00;;;20.70;71.70;;;;;;5026859;28;20018;-84
2021/07/05 08:05:08;;;;;;;0.00;0.00;;;20.80;71.70;;;;;;5026739;28;20041;-84
2021/07/05 08:07:37;;;;;;;0.00;0.00;;;20.80;71.40;;;;;;5011511;28;20037;-84
2021/07/05 08:10:04;;;;;;;0.00;0.00;;;20.90;71.20;;;;;;5026736;28;20030;-83
2021/07/05 08:12:30;;;;;;;0.00;0.00;;;21.10;71.00;;;;;;5010782;28;20503;-84
2021/07/05 08:14:56;;;;;;;0.10;0.00;;;21.20;70.70;;;;;;5026889;28;20026;-85
2021/07/05 08:17:22;;;;;;;0.00;0.00;;;21.20;70.50;;;;;;5011053;28;20401;-82
2021/07/05 08:19:48;;;;;;;0.65;0.00;;;21.30;70.40;;;;;;5026947;28;20018;-84
2021/07/05 08:22:15;;;;;;;0.00;0.00;;;21.30;70.30;;;;;;5010321;28;20489;-84
2021/07/05 08:24:41;;;;;;;0.00;0.00;;;21.30;70.30;;;;;;5010999;28;20034;-83
2021/07/05 08:27:07;;;;;;;0.00;0.00;;;21.40;70.20;;;;;;5006992;28;20039;-84
2021/07/05 08:29:33;;;;;;;0.00;0.00;;;21.40;70.10;;;;;;5020075;28;20049;-83
2021/07/05 08:31:59;;;;;;;0.00;0.00;;;21.50;70.00;;;;;;5026129;28;20033;-83
2021/07/05 08:34:25;;;;;;;0.00;0.00;;;21.60;69.90;;;;;;5026760;28;20022;-81
2021/07/05 08:36:51;;;;;;;0.00;0.00;;;21.70;69.60;;;;;;5010422;28;20045;-83
2021/07/05 08:39:17;;;;;;;0.00;0.00;;;21.90;69.40;;;;;;5026594;28;20033;-84
2021/07/05 08:41:43;;;;;;;0.00;0.00;;;22.00;69.10;;;;;;5006802;28;20040;-84
2021/07/05 08:44:09;;;;;;;0.00;0.00;;;22.10;68.80;;;;;;5005144;28;20052;-82
2021/07/05 08:46:35;;;;;;;0.00;0.00;;;22.20;68.60;;;;;;5029758;28;20037;-84
2021/07/05 08:49:02;;;;;;;0.00;0.00;;;22.30;68.50;;;;;;5030268;28;20026;-84
2021/07/05 08:51:28;;;;;;;0.00;0.00;;;22.40;68.30;;;;;;5015013;28;20022;-84
2021/07/05 08:53:55;;;;;;;0.10;0.00;;;22.40;68.10;;;;;;5014785;28;20041;-84
2021/07/05 08:56:21;;;;;;;0.00;0.00;;;22.50;67.90;;;;;;5014549;28;20472;-85
2021/07/05 08:58:48;;;;;;;0.00;0.00;;;22.60;67.90;;;;;;5014867;28;20293;-85
2021/07/05 09:01:15;;;;;;;0.00;0.00;;;22.70;67.70;;;;;;5029475;28;20026;-83
2021/07/05 09:03:41;;;;;;;0.00;0.00;;;22.80;67.60;;;;;;5014021;28;20026;-84
2021/07/05 09:06:08;;;;;;;0.00;0.00;;;22.80;67.30;;;;;;5029453;28;20033;-84
2021/07/05 09:08:38;;;;;;;0.15;0.03;;;22.90;67.10;;;;;;5029872;28;20033;-85
2021/07/05 09:11:06;;;;;;;0.00;0.00;;;22.90;67.00;;;;;;5029238;28;20033;-84
2021/07/05 09:13:33;;;;;;;0.00;0.00;;;23.00;66.90;;;;;;5029458;28;20026;-81
2021/07/05 09:16:00;;;;;;;0.10;0.10;;;23.00;66.90;;;;;;5029485;28;20041;-81
2021/07/05 09:18:26;;;;;;;0.00;0.00;;;23.00;66.90;;;;;;5015092;28;20034;-85
2021/07/05 09:20:52;;;;;;;0.00;0.00;;;23.00;66.80;;;;;;5018403;28;20026;-85
2021/07/05 09:23:19;;;;;;;0.30;0.20;;;23.10;66.60;;;;;;5040370;28;20040;-85
2021/07/05 09:25:47;;;;;;;0.00;0.00;;;23.30;66.40;;;;;;5020534;28;20388;-84
2021/07/05 09:28:15;;;;;;;0.00;0.00;;;23.60;65.90;;;;;;5012594;28;20053;-85
2021/07/05 09:30:46;;;;;;;0.00;0.00;;;23.70;65.40;;;;;;5012852;28;20034;-83
2021/07/05 09:33:23;;;;;;;0.00;0.00;;;23.80;65.20;;;;;;5028967;28;20034;-85
2021/07/05 09:36:00;;;;;;;0.08;0.00;;;23.80;65.20;;;;;;5028627;28;20022;-84
2021/07/05 09:38:47;;;;;;;0.00;0.00;;;23.70;65.10;;;;;;5009170;28;20428;-85
2021/07/05 09:41:29;;;;;;;0.00;0.00;;;23.70;65.10;;;;;;5005023;28;20037;-85
2021/07/05 09:44:00;;;;;;;0.00;0.00;;;23.70;65.20;;;;;;5029283;28;20030;-83
2021/07/05 09:46:55;;;;;;;;;;;23.60;65.20;;;;;;5013542;28;20026;-85
2021/07/05 09:49:31;;;;;;;0.00;0.00;;;23.60;65.20;;;;;;5016864;28;19928;-84
2021/07/05 09:52:25;;;;;;;0.08;0.00;;;23.50;65.40;;;;;;5009381;28;20046;-83
2021/07/05 09:54:53;;;;;;;0.00;0.00;;;23.40;65.50;;;;;;5028032;28;20050;-84
2021/07/05 09:57:25;;;;;;;0.00;0.00;;;23.40;65.50;;;;;;5028735;28;20037;-84
2021/07/05 09:59:53;;;;;;;0.00;0.00;;;23.40;65.40;;;;;;5027894;28;20030;-84
2021/07/05 10:02:19;;;;;;;0.00;0.00;;;23.50;65.40;;;;;;5027771;28;20038;-83
2021/07/05 10:04:47;;;;;;;0.00;0.00;;;23.60;65.10;;;;;;5028907;28;20038;-81
2021/07/05 10:07:14;;;;;;;0.00;0.00;;;23.70;64.90;;;;;;5028380;28;20042;-84
2021/07/05 10:09:49;;;;;;;0.00;0.00;;;23.70;64.60;;;;;;5013975;28;20030;-85
2021/07/05 10:12:31;;;;;;;0.00;0.00;;;23.80;64.50;;;;;;5028592;28;20030;-84
2021/07/05 10:15:03;;;;;;;0.00;0.00;;;23.80;64.50;;;;;;5008317;28;20053;-85
2021/07/05 10:17:34;;;;;;;0.10;0.00;;;23.80;64.30;;;;;;5019679;28;20041;-84
2021/07/05 10:20:01;;;;;;;0.00;0.00;;;23.90;64.10;;;;;;5012143;28;20041;-86
2021/07/05 10:22:27;;;;;;;0.00;0.00;;;24.00;63.90;;;;;;5028617;28;20390;-84
2021/07/05 10:24:53;;;;;;;0.00;0.00;;;24.10;63.60;;;;;;5009585;28;20361;-84
2021/07/05 10:27:19;;;;;;;0.00;0.00;;;24.10;63.40;;;;;;5011789;28;20042;-85
2021/07/05 10:29:47;;;;;;;2.72;0.10;;;24.10;63.50;;;;;;5012732;28;20042;-84
2021/07/05 10:32:15;;;;;;;0.00;0.00;;;24.10;63.40;;;;;;5027065;28;20506;-84
2021/07/05 10:34:41;;;;;;;3.03;0.63;;;24.10;63.40;;;;;;5028414;28;20420;-84
2021/07/05 10:37:11;;;;;;;0.00;0.00;;;24.10;63.30;;;;;;5028169;28;20041;-84
2021/07/05 10:39:37;;;;;;;0.00;0.00;;;24.10;63.30;;;;;;5010257;28;20022;-85
2021/07/05 10:42:20;;;;;;;0.00;0.00;;;24.20;64.00;;;;;;5028176;28;20038;-84
2021/07/05 10:44:46;;;;;;;0.05;0.03;;;24.30;62.90;;;;;;5025795;28;20026;-83
2021/07/05 10:47:12;;;;;;;0.00;0.00;;;24.30;62.70;;;;;;5012112;28;20532;-85
2021/07/05 10:49:39;;;;;;;0.00;0.00;;;24.30;62.60;;;;;;5012651;28;20032;-84
2021/07/05 10:52:06;;;;;;;0.00;0.00;;;24.30;62.70;;;;;;5011752;28;20049;-84
2021/07/05 10:54:46;;;;;;;0.10;0.00;;;24.20;62.70;;;;;;4995742;28;20477;-84
2021/07/05 10:57:20;;;;;;;0.00;0.00;;;24.10;62.60;;;;;;5027782;28;20412;-83
2021/07/05 10:59:48;;;;;;;0.00;0.00;;;24.10;62.70;;;;;;5027266;28;20030;-84
2021/07/05 11:02:35;;;;;;;0.00;0.00;;;24.00;62.70;;;;;;5011552;28;20038;-84
2021/07/05 11:05:01;;;;;;;0.00;0.00;;;23.90;62.70;;;;;;5011682;28;20045;-83
2021/07/05 11:07:44;;;;;;;0.00;0.00;;;23.80;62.90;;;;;;5027720;28;20049;-84
2021/07/05 11:10:18;;;;;;;0.00;0.00;;;23.70;62.90;;;;;;5027603;28;20034;-84
2021/07/05 11:13:04;;;;;;;0.00;0.00;;;23.70;63.10;;;;;;5011882;28;20025;-83
2021/07/05 11:15:54;;;;;;;0.00;0.00;;;23.60;63.20;;;;;;5025116;28;20488;-84
2021/07/05 11:18:52;;;;;;;0.17;0.00;;;23.50;63.30;;;;;;5027238;28;20041;-84
2021/07/05 11:21:24;;;;;;;0.00;0.00;;;23.40;63.30;;;;;;5029701;28;20488;-84
2021/07/05 11:23:54;;;;;;;0.00;0.00;;;23.40;63.40;;;;;;5020209;28;20144;-85
2021/07/05 11:26:20;;;;;;;0.00;0.00;;;23.30;63.50;;;;;;5029579;28;20029;-84
2021/07/05 11:28:47;;;;;;;0.00;0.00;;;23.20;63.60;;;;;;4997188;28;20033;-84
2021/07/05 11:31:22;;;;;;;0.00;0.00;;;23.10;63.60;;;;;;4995356;28;20489;-84
2021/07/05 11:33:48;;;;;;;0.38;0.00;;;23.00;63.60;;;;;;5030158;28;20057;-83
2021/07/05 11:36:21;;;;;;;0.00;0.00;;;23.00;63.60;;;;;;4996687;28;20492;-84
2021/07/05 11:39:01;;;;;;;0.00;0.00;;;23.00;63.60;;;;;;5004556;28;20041;-84
2021/07/05 11:41:28;;;;;;;0.00;0.00;;;22.90;63.60;;;;;;5029567;28;20033;-84
2021/07/05 11:44:13;;;;;;;0.20;0.10;;;22.90;63.60;;;;;;4996568;28;20056;-84
2021/07/05 11:46:39;;;;;;;0.00;0.00;;;22.90;63.70;;;;;;5001344;28;20022;-84
2021/07/05 11:49:07;;;;;;;1.15;0.10;;;22.80;63.70;;;;;;5029500;28;20033;-84
2021/07/05 11:51:37;;;;;;;0.00;0.00;;;22.70;63.70;;;;;;5013242;28;20521;-84
2021/07/05 11:54:10;;;;;;;0.00;0.00;;;22.70;63.70;;;;;;4996569;28;20037;-84
2021/07/05 11:56:41;;;;;;;0.03;0.00;;;22.70;63.80;;;;;;4994186;28;20041;-85
2021/07/05 11:59:10;;;;;;;;;;;22.70;63.70;;;;;;5026865;28;20092;-86
2021/07/05 12:01:36;;;;;;;0.00;0.00;;;22.70;63.80;;;;;;5010421;28;19914;-85
2021/07/05 12:04:04;;;;;;;0.00;0.00;;;22.60;63.80;;;;;;5027259;28;20049;-85
2021/07/05 12:06:30;;;;;;;0.00;0.00;;;22.60;63.80;;;;;;4994988;28;20030;-85
2021/07/05 12:08:57;;;;;;;0.00;0.00;;;22.60;63.70;;;;;;5011710;28;20026;-84
2021/07/05 12:11:42;;;;;;;0.00;0.00;;;22.70;63.70;;;;;;5026912;28;20030;-84
2021/07/05 12:14:12;;;;;;;0.00;0.00;;;22.70;63.60;;;;;;5009988;28;20034;-84
2021/07/05 12:16:40;;;;;;;0.00;0.00;;;22.80;63.50;;;;;;5027869;28;20038;-84
2021/07/05 12:19:08;;;;;;;0.00;0.00;;;22.80;63.30;;;;;;5030848;28;20396;-83
2021/07/05 12:21:43;;;;;;;0.00;0.00;;;22.80;63.20;;;;;;5014940;28;20026;-84
2021/07/05 12:24:21;;;;;;;0.05;0.00;;;22.90;63.10;;;;;;5014109;28;20487;-83
2021/07/05 12:26:54;;;;;;;0.00;0.00;;;22.90;63.00;;;;;;5030090;28;20397;-84
2021/07/05 12:29:42;;;;;;;0.00;0.00;;;23.00;63.00;;;;;;5012902;28;20029;-84
2021/07/05 12:32:13;;;;;;;0.00;0.00;;;23.00;63.00;;;;;;5028363;28;20396;-85
2021/07/05 12:34:50;;;;;;;0.25;0.00;;;23.00;63.10;;;;;;5015298;28;20025;-85
2021/07/05 12:37:32;;;;;;;0.00;0.00;;;22.90;63.10;;;;;;5029650;28;20064;-84
2021/07/05 12:40:17;;;;;;;0.00;0.00;;;22.90;63.20;;;;;;5010907;28;20018;-85
2021/07/05 12:42:59;;;;;;;0.00;0.00;;;22.80;63.30;;;;;;5014381;28;20033;-83
2021/07/05 12:45:37;;;;;;;0.38;0.10;;;22.80;63.30;;;;;;5028355;28;20040;-84
2021/07/05 12:48:23;;;;;;;0.00;0.00;;;22.80;63.30;;;;;;5013645;28;20033;-84
2021/07/05 12:51:03;;;;;;;0.00;0.00;;;22.80;63.40;;;;;;5009647;28;20068;-85
2021/07/05 12:53:32;;;;;;;0.00;0.00;;;22.80;63.40;;;;;;5021537;28;20380;-84
2021/07/05 12:56:13;;;;;;;0.00;0.00;;;22.70;63.40;;;;;;5013821;28;20042;-83